createdAt,value
2018-09-01T00:01:16.397Z,11.90
2018-09-01T00:04:40.752Z,11.90
2018-09-01T00:08:05.176Z,11.90
2018-09-01T00:11:29.697Z,11.80
2018-09-01T00:14:54.075Z,11.80
2018-09-01T00:18:18.492Z,11.70
2018-09-01T00:21:42.932Z,11.70
2018-09-01T00:25:07.596Z,11.70
2018-09-01T00:28:31.973Z,11.60
2018-09-01T00:31:56.398Z,11.50
2018-09-01T00:35:20.781Z,11.50
2018-09-01T00:39:16.913Z,11.50
2018-09-01T00:42:41.318Z,11.50
2018-09-01T00:46:05.991Z,11.40
2018-09-01T00:49:30.461Z,11.40
2018-09-01T00:52:54.854Z,11.50
2018-09-01T00:56:19.308Z,11.40
2018-09-01T00:59:43.734Z,11.40
2018-09-01T01:03:08.148Z,11.40
2018-09-01T01:06:32.556Z,11.30
2018-09-01T01:09:56.953Z,11.30
2018-09-01T01:13:21.414Z,11.20
2018-09-01T01:16:45.952Z,11.20
2018-09-01T01:20:10.425Z,11.10
2018-09-01T01:23:34.800Z,11.10
2018-09-01T01:26:59.207Z,11.10
2018-09-01T01:30:23.609Z,11.00
2018-09-01T01:33:48.030Z,11.00
2018-09-01T01:37:12.430Z,11.00
2018-09-01T01:40:36.830Z,10.90
2018-09-01T01:44:01.229Z,10.90
2018-09-01T01:47:25.663Z,10.90
2018-09-01T01:50:50.056Z,10.80
2018-09-01T01:54:14.459Z,10.80
2018-09-01T01:57:44.140Z,10.70
2018-09-01T02:01:08.555Z,10.70
2018-09-01T02:04:32.969Z,10.70
2018-09-01T02:07:57.349Z,10.70
2018-09-01T02:11:21.764Z,10.70
2018-09-01T02:14:46.194Z,10.70
2018-09-01T02:18:10.712Z,10.70
2018-09-01T02:21:35.099Z,10.70
2018-09-01T02:24:59.491Z,10.60
2018-09-01T02:28:23.868Z,10.50
2018-09-01T02:31:48.280Z,10.50
2018-09-01T02:35:12.711Z,10.50
2018-09-01T02:38:37.108Z,10.50
2018-09-01T02:42:01.511Z,10.50
2018-09-01T02:45:25.898Z,10.40
2018-09-01T02:48:50.289Z,10.40
2018-09-01T02:52:14.829Z,10.40
2018-09-01T02:55:39.241Z,10.40
2018-09-01T02:59:04.055Z,10.30
2018-09-01T03:02:33.671Z,10.30
2018-09-01T03:05:58.053Z,10.20
2018-09-01T03:09:23.000Z,10.30
2018-09-01T03:12:47.399Z,10.20
2018-09-01T03:16:11.843Z,10.10
2018-09-01T03:19:36.268Z,10.10
2018-09-01T03:23:00.668Z,10.10
2018-09-01T03:26:25.053Z,10.10
2018-09-01T03:29:49.438Z,10.10
2018-09-01T03:33:13.844Z,10.00
2018-09-01T03:36:38.240Z,10.00
2018-09-01T03:40:02.726Z,10.00
2018-09-01T03:43:27.280Z,10.00
2018-09-01T03:46:51.659Z,10.00
2018-09-01T03:50:16.045Z,10.00
2018-09-01T03:53:40.466Z,10.00
2018-09-01T03:57:04.860Z,10.00
2018-09-01T04:00:29.290Z,10.00
2018-09-01T04:03:53.719Z,10.00
2018-09-01T04:07:18.095Z,10.00
2018-09-01T04:10:42.536Z,10.00
2018-09-01T04:14:06.955Z,9.90
2018-09-01T04:17:31.437Z,9.90
2018-09-01T04:20:55.893Z,9.90
2018-09-01T04:24:20.338Z,9.90
2018-09-01T04:27:44.692Z,9.80
2018-09-01T04:31:09.060Z,9.80
2018-09-01T04:34:33.491Z,9.70
2018-09-01T04:37:57.940Z,9.70
2018-09-01T04:41:22.365Z,9.70
2018-09-01T04:44:46.710Z,9.70
2018-09-01T04:48:11.725Z,9.70
2018-09-01T04:51:36.231Z,9.60
2018-09-01T04:55:00.658Z,9.70
2018-09-01T04:58:25.050Z,9.60
2018-09-01T05:01:49.484Z,9.60
2018-09-01T05:05:13.871Z,9.60
2018-09-01T05:08:38.263Z,9.70
2018-09-01T05:12:02.634Z,9.70
2018-09-01T05:15:27.041Z,9.70
2018-09-01T05:18:51.692Z,9.70
2018-09-01T05:22:16.250Z,9.80
2018-09-01T05:25:40.842Z,9.80
2018-09-01T05:29:05.571Z,9.90
2018-09-01T05:32:30.048Z,9.90
2018-09-01T05:35:54.464Z,9.90
2018-09-01T05:39:18.867Z,10.00
2018-09-01T05:42:43.588Z,10.10
2018-09-01T05:46:08.261Z,10.20
2018-09-01T05:49:32.634Z,10.20
2018-09-01T05:52:57.144Z,10.30
2018-09-01T05:56:21.615Z,10.50
2018-09-01T05:59:46.061Z,10.50
2018-09-01T06:03:10.517Z,10.60
2018-09-01T06:06:34.992Z,10.70
2018-09-01T06:09:59.554Z,10.80
2018-09-01T06:13:24.158Z,10.80
2018-09-01T06:16:48.900Z,10.90
2018-09-01T06:20:14.613Z,11.00
2018-09-01T06:23:39.156Z,11.10
2018-09-01T06:27:08.605Z,11.20
2018-09-01T06:30:35.553Z,11.30
2018-09-01T06:34:06.533Z,11.40
2018-09-01T06:37:31.082Z,11.50
2018-09-01T06:40:55.529Z,11.60
2018-09-01T06:44:20.116Z,11.70
2018-09-01T06:48:47.933Z,11.80
2018-09-01T07:00:03.565Z,12.00
2018-09-01T07:03:28.084Z,12.30
2018-09-01T07:06:52.671Z,12.40
2018-09-01T07:10:17.175Z,12.50
2018-09-01T07:13:41.771Z,12.60
2018-09-01T07:17:06.618Z,12.70
2018-09-01T07:20:30.964Z,12.90
2018-09-01T07:23:55.391Z,13.00
2018-09-01T07:27:19.811Z,13.10
2018-09-01T07:30:44.338Z,13.20
2018-09-01T07:34:08.686Z,13.40
2018-09-01T07:37:33.137Z,13.50
2018-09-01T07:40:57.527Z,13.60
2018-09-01T07:44:21.951Z,13.60
2018-09-01T07:47:46.336Z,13.70
2018-09-01T07:51:10.880Z,13.80
2018-09-01T07:54:35.669Z,14.00
2018-09-01T07:58:00.034Z,14.20
2018-09-01T08:01:24.432Z,14.30
2018-09-01T08:04:49.231Z,14.40
2018-09-01T08:08:13.635Z,14.50
2018-09-01T08:11:38.389Z,14.70
2018-09-01T08:15:02.947Z,14.80
2018-09-01T08:18:27.527Z,14.90
2018-09-01T08:21:52.001Z,15.00
2018-09-01T08:25:16.615Z,15.00
2018-09-01T08:28:41.090Z,15.10
2018-09-01T08:32:05.497Z,15.30
2018-09-01T08:35:29.949Z,15.40
2018-09-01T08:38:54.380Z,15.60
2018-09-01T08:42:18.878Z,15.70
2018-09-01T08:45:43.281Z,15.90
2018-09-01T08:49:07.766Z,16.20
2018-09-01T08:52:32.172Z,16.30
2018-09-01T08:55:56.581Z,16.50
2018-09-01T08:59:21.102Z,16.60
2018-09-01T09:02:45.646Z,16.80
2018-09-01T09:06:10.363Z,16.90
2018-09-01T09:09:34.818Z,17.10
2018-09-01T09:12:59.240Z,17.30
2018-09-01T09:16:23.634Z,17.50
2018-09-01T09:19:48.086Z,17.60
2018-09-01T09:23:12.581Z,17.80
2018-09-01T09:26:37.018Z,18.10
2018-09-01T09:30:01.521Z,18.30
2018-09-01T09:33:26.017Z,18.50
2018-09-01T09:36:50.503Z,18.90
2018-09-01T09:40:14.966Z,19.30
2018-09-01T09:43:39.559Z,19.70
2018-09-01T09:47:04.005Z,20.00
2018-09-01T09:50:28.444Z,20.20
2018-09-01T09:53:52.840Z,20.70
2018-09-01T09:57:17.288Z,21.20
2018-09-01T10:00:46.884Z,21.80
2018-09-01T10:04:12.070Z,22.70
2018-09-01T10:07:36.716Z,23.50
2018-09-01T10:11:01.394Z,24.00
2018-09-01T10:14:25.977Z,24.70
2018-09-01T10:17:50.456Z,24.40
2018-09-01T10:21:14.879Z,23.70
2018-09-01T10:24:39.329Z,24.30
2018-09-01T10:28:03.883Z,25.20
2018-09-01T10:31:28.290Z,26.20
2018-09-01T10:34:52.716Z,26.80
2018-09-01T10:38:17.159Z,26.20
2018-09-01T10:41:41.591Z,25.00
2018-09-01T10:45:06.188Z,24.90
2018-09-01T10:48:30.601Z,24.60
2018-09-01T10:51:55.024Z,25.40
2018-09-01T10:55:19.497Z,26.20
2018-09-01T10:58:43.973Z,25.70
2018-09-01T11:02:08.422Z,24.40
2018-09-01T11:05:32.916Z,23.70
2018-09-01T11:08:57.251Z,23.60
2018-09-01T11:12:22.069Z,23.30
2018-09-01T11:15:46.882Z,23.00
2018-09-01T11:19:11.935Z,22.60
2018-09-01T11:22:36.355Z,22.80
2018-09-01T11:26:00.731Z,22.70
2018-09-01T11:29:25.151Z,22.90
2018-09-01T11:32:49.595Z,22.90
2018-09-01T11:36:13.997Z,22.90
2018-09-01T11:39:38.585Z,22.70
2018-09-01T11:43:03.215Z,22.60
2018-09-01T11:46:27.448Z,23.10
2018-09-01T11:49:51.955Z,23.70
2018-09-01T11:53:16.490Z,24.50
2018-09-01T11:56:40.739Z,25.10
2018-09-01T12:00:05.296Z,25.50
2018-09-01T12:03:29.835Z,25.30
2018-09-01T12:06:54.282Z,24.50
2018-09-01T12:10:18.760Z,23.60
2018-09-01T12:13:43.177Z,23.20
2018-09-01T12:17:07.755Z,23.70
2018-09-01T12:20:32.176Z,24.60
2018-09-01T12:23:56.703Z,24.40
2018-09-01T12:27:21.122Z,24.30
2018-09-01T12:30:45.611Z,24.10
2018-09-01T12:34:10.042Z,24.10
2018-09-01T12:37:34.442Z,25.00
2018-09-01T12:40:58.828Z,25.80
2018-09-01T12:44:23.470Z,25.80
2018-09-01T12:47:47.922Z,25.20
2018-09-01T12:51:12.360Z,24.60
2018-09-01T12:54:36.764Z,24.80
2018-09-01T12:58:01.218Z,25.80
2018-09-01T13:01:25.623Z,26.90
2018-09-01T13:04:50.458Z,27.60
2018-09-01T13:08:14.913Z,27.50
2018-09-01T13:11:39.339Z,26.90
2018-09-01T13:15:03.799Z,26.20
2018-09-01T13:18:28.248Z,27.70
2018-09-01T13:21:52.684Z,29.70
2018-09-01T13:25:17.238Z,31.60
2018-09-01T13:28:41.610Z,30.90
2018-09-01T13:32:06.036Z,29.20
2018-09-01T13:35:30.476Z,27.90
2018-09-01T13:38:55.425Z,26.60
2018-09-01T13:42:19.837Z,25.60
2018-09-01T13:45:44.246Z,25.00
2018-09-01T13:49:08.666Z,25.20
2018-09-01T13:52:33.106Z,28.10
2018-09-01T13:55:57.702Z,31.10
2018-09-01T13:59:22.191Z,33.10
2018-09-01T14:02:46.781Z,34.80
2018-09-01T14:06:11.259Z,35.00
2018-09-01T14:09:35.772Z,32.60
2018-09-01T14:13:00.175Z,31.70
2018-09-01T14:16:24.608Z,30.20
2018-09-01T14:19:49.035Z,28.30
2018-09-01T14:23:13.567Z,27.70
2018-09-01T14:26:38.065Z,30.60
2018-09-01T14:30:02.474Z,33.10
2018-09-01T14:33:26.863Z,35.20
2018-09-01T14:36:51.318Z,36.20
2018-09-01T14:40:15.758Z,34.50
2018-09-01T14:43:40.148Z,33.30
2018-09-01T14:47:04.887Z,31.70
2018-09-01T14:50:29.267Z,32.50
2018-09-01T14:53:53.827Z,33.50
2018-09-01T14:57:18.294Z,31.80
2018-09-01T15:00:42.772Z,33.00
2018-09-01T15:04:07.219Z,35.30
2018-09-01T15:07:31.629Z,37.30
2018-09-01T15:10:56.069Z,37.90
2018-09-01T15:14:20.531Z,38.00
2018-09-01T15:17:47.460Z,38.50
2018-09-01T15:21:12.104Z,39.10
2018-09-01T15:24:36.588Z,39.50
2018-09-01T15:28:01.052Z,39.90
2018-09-01T15:31:25.482Z,37.10
2018-09-01T15:34:49.932Z,33.10
2018-09-01T15:38:14.332Z,30.70
2018-09-01T15:41:38.751Z,30.00
2018-09-01T15:45:03.224Z,31.40
2018-09-01T15:48:27.605Z,31.10
2018-09-01T15:51:52.001Z,30.10
2018-09-01T15:55:16.420Z,33.00
2018-09-01T15:58:40.969Z,35.50
2018-09-01T16:02:05.650Z,36.40
2018-09-01T16:05:30.108Z,37.60
2018-09-01T16:08:54.526Z,37.90
2018-09-01T16:12:18.975Z,38.10
2018-09-01T16:15:43.396Z,37.50
2018-09-01T16:19:07.845Z,34.80
2018-09-01T16:22:32.263Z,31.60
2018-09-01T16:25:56.670Z,29.40
2018-09-01T16:29:21.176Z,27.80
2018-09-01T16:32:45.733Z,26.60
2018-09-01T16:36:10.247Z,25.60
2018-09-01T16:39:34.675Z,25.00
2018-09-01T16:42:59.120Z,25.90
2018-09-01T16:46:23.516Z,28.50
2018-09-01T16:49:48.033Z,30.30
2018-09-01T16:53:12.486Z,29.50
2018-09-01T16:56:36.909Z,27.80
2018-09-01T17:00:01.321Z,26.40
2018-09-01T17:03:26.094Z,25.40
2018-09-01T17:06:50.712Z,24.40
2018-09-01T17:10:15.304Z,24.00
2018-09-01T17:13:39.760Z,23.50
2018-09-01T17:17:04.393Z,23.20
2018-09-01T17:20:28.804Z,23.00
2018-09-01T17:23:53.347Z,22.70
2018-09-01T17:27:18.001Z,22.70
2018-09-01T17:30:42.470Z,22.50
2018-09-01T17:34:07.021Z,22.30
2018-09-01T17:37:31.603Z,22.00
2018-09-01T17:40:56.192Z,21.70
2018-09-01T17:44:20.704Z,21.30
2018-09-01T17:47:45.322Z,21.00
2018-09-01T17:51:12.928Z,20.80
2018-09-01T17:54:37.690Z,20.50
2018-09-01T17:58:02.164Z,20.40
2018-09-01T18:01:28.384Z,20.20
2018-09-01T18:04:52.878Z,20.00
2018-09-01T18:08:18.294Z,19.90
2018-09-01T18:11:43.193Z,19.70
2018-09-01T18:15:10.038Z,19.50
2018-09-01T18:18:34.964Z,19.30
2018-09-01T18:22:00.124Z,19.20
2018-09-01T18:25:24.538Z,19.10
2018-09-01T18:28:49.435Z,18.90
2018-09-01T18:32:14.149Z,18.80
2018-09-01T18:35:38.878Z,18.70
2018-09-01T18:39:04.297Z,18.60
2018-09-01T18:42:28.801Z,18.50
2018-09-01T18:45:53.994Z,18.40
2018-09-01T18:49:18.935Z,18.20
2018-09-01T18:52:43.717Z,18.10
2018-09-01T18:56:08.186Z,18.00
2018-09-01T18:59:33.204Z,17.90
2018-09-01T19:02:57.853Z,17.80
2018-09-01T19:06:23.136Z,17.80
2018-09-01T19:09:47.815Z,17.70
2018-09-01T19:13:13.555Z,17.70
2018-09-01T19:16:38.855Z,17.50
2018-09-01T19:20:03.561Z,17.40
2018-09-01T19:23:28.794Z,17.40
2018-09-01T19:26:53.633Z,17.30
2018-09-01T19:30:18.102Z,17.20
2018-09-01T19:33:42.601Z,17.20
2018-09-01T19:37:07.034Z,17.10
2018-09-01T19:40:31.662Z,17.00
2018-09-01T19:43:56.119Z,16.90
2018-09-01T19:47:20.537Z,16.90
2018-09-01T19:50:44.989Z,16.80
2018-09-01T19:54:09.579Z,16.60
2018-09-01T19:57:34.080Z,16.30
2018-09-01T20:00:58.504Z,16.10
2018-09-01T20:04:23.116Z,15.80
2018-09-01T20:07:47.662Z,15.60
2018-09-01T20:11:12.320Z,15.60
2018-09-01T20:14:37.060Z,15.60
2018-09-01T20:18:02.100Z,15.50
2018-09-01T20:21:27.948Z,15.40
2018-09-01T20:24:53.115Z,15.20
2018-09-01T20:28:18.424Z,15.10
2018-09-01T20:31:42.852Z,15.00
2018-09-01T20:35:12.727Z,14.90
2018-09-01T20:38:37.806Z,14.90
2018-09-01T20:42:03.219Z,14.70
2018-09-01T20:45:27.880Z,14.70
2018-09-01T20:48:53.647Z,14.70
2018-09-01T20:52:18.352Z,14.70
2018-09-01T20:55:42.991Z,14.60
2018-09-01T20:59:07.609Z,14.50
2018-09-01T21:02:32.080Z,14.40
2018-09-01T21:05:56.611Z,14.30
2018-09-01T21:09:21.239Z,14.30
2018-09-01T21:12:45.859Z,14.20
2018-09-01T21:16:10.387Z,14.20
2018-09-01T21:19:34.847Z,14.10
2018-09-01T21:22:59.584Z,14.00
2018-09-01T21:26:24.393Z,14.00
2018-09-01T21:29:49.043Z,14.00
2018-09-01T21:33:13.499Z,14.00
2018-09-01T21:36:38.132Z,13.90
2018-09-01T21:40:02.635Z,13.90
2018-09-01T21:43:27.447Z,13.90
2018-09-01T21:46:52.021Z,13.90
2018-09-01T21:50:16.578Z,13.90
2018-09-01T21:53:41.127Z,13.90
2018-09-01T21:57:06.126Z,13.90
2018-09-01T22:00:30.826Z,13.90
2018-09-01T22:03:55.271Z,13.90
2018-09-01T22:07:21.408Z,14.00
2018-09-01T22:10:45.807Z,14.00
2018-09-01T22:14:10.362Z,14.10
2018-09-01T22:17:34.851Z,14.10
2018-09-01T22:20:59.240Z,14.00
2018-09-01T22:24:23.632Z,14.00
2018-09-01T22:27:48.142Z,14.10
2018-09-01T22:31:12.582Z,14.00
2018-09-01T22:34:37.012Z,14.00
2018-09-01T22:38:01.449Z,13.90
2018-09-01T22:41:25.876Z,13.80
2018-09-01T22:44:50.322Z,13.80
2018-09-01T22:48:14.699Z,13.70
2018-09-01T22:51:39.142Z,13.70
2018-09-01T22:55:03.547Z,13.70
2018-09-01T22:58:27.968Z,13.70
2018-09-01T23:01:52.398Z,13.80
2018-09-01T23:05:16.793Z,13.70
2018-09-01T23:08:41.180Z,13.70
2018-09-01T23:12:05.585Z,13.70
2018-09-01T23:15:30.143Z,13.70
2018-09-01T23:18:54.567Z,13.70
2018-09-01T23:22:18.957Z,13.70
2018-09-01T23:25:43.351Z,13.70
2018-09-01T23:29:07.781Z,13.70
2018-09-01T23:32:32.215Z,13.80
2018-09-01T23:35:56.635Z,13.80
2018-09-01T23:39:21.104Z,13.80
2018-09-01T23:42:45.527Z,13.90
2018-09-01T23:46:10.041Z,13.90
2018-09-01T23:49:34.454Z,13.90
2018-09-01T23:52:58.887Z,13.80
2018-09-01T23:56:23.280Z,13.80
2018-09-01T23:59:47.726Z,13.70
